Flight Briefing for CPX961

Departure Arrival
Washington Dulles International Airport (KIAD)
Click to view FAA NOTAMS
Joint Base McGuire Dix Lakehurst (KWRI)
Click to view FAA NOTAMS
Departure Time Arrival Time
N/A N/A
Aircraft Distance
B767-300BDSF 151nm
Departure METAR Arrival METAR
KIAD 152052Z 20013KT 10SM FEW045 SCT140 BKN200 16/04 A2964 RMK AO2 SLP035 T01560039 56010 KWRI 152056Z 23013G20KT 10SM FEW085 17/04 A2960 RMK AO2A SLP023 T01650042 57017 VISNO RWY06 $
Suggested Route
MXE


View recent IFR Routes data
Notes
EMPTY | NON-REVENUE REPOSITIONING LEG

Charts and Procedures

Charts for KIAD
No chart available
Charts for KWRI
No chart available

Ventusky Weather